Time;durP1;ratioP1;P1;durP2;ratioP2;P2;SDS_P1;SDS_P2;PMS_P1;PMS_P2;Temp;Humidity;BMP_temperature;BMP_pressure;BME280_temperature;BME280_humidity;BME280_pressure;Samples;Min_cycle;Max_cycle;Signal;HPM_P1;HPM_P2
2021/06/27 00:00:26;;;;;;;;;22.00;21.00;;;;;23.37;54.68;98915.44;6042207;28;126048;-59
2021/06/27 00:03:50;;;;;;;;;21.00;20.00;;;;;23.36;54.71;98914.63;6042215;28;96830;-57
2021/06/27 00:06:55;;;;;;;;;20.60;20.60;;;;;23.38;54.43;98919.84;6041249;28;127407;-59
2021/06/27 00:09:58;;;;;;;;;22.40;21.40;;;;;23.37;54.52;98926.47;6041627;28;127458;-60
2021/06/27 00:13:02;;;;;;;;;19.00;18.00;;;;;23.32;54.51;98922.69;6041520;28;124957;-59
2021/06/27 00:16:07;;;;;;;;;20.60;20.00;;;;;23.33;54.73;98926.25;6041787;28;127867;-59
2021/06/27 00:19:10;;;;;;;;;23.40;22.00;;;;;23.29;54.81;98917.81;6040945;28;124788;-59
2021/06/27 00:22:15;;;;;;;;;20.00;19.00;;;;;23.31;54.94;98917.50;6040531;28;124788;-60
2021/06/27 00:25:20;;;;;;;;;25.00;23.00;;;;;23.29;54.74;98917.00;6024200;28;126200;-58
2021/06/27 00:28:39;;;;;;;;;19.40;19.40;;;;;23.34;54.85;98911.38;6040538;28;126237;-59
2021/06/27 00:31:42;;;;;;;;;20.60;18.00;;;;;23.32;54.67;98917.19;6040965;28;126348;-59
2021/06/27 00:34:45;;;;;;;;;20.40;19.40;;;;;23.33;54.32;98921.56;6041863;28;126107;-60
2021/06/27 00:37:50;;;;;;;;;20.00;18.60;;;;;23.28;54.58;98918.91;6040882;28;126280;-57
2021/06/27 00:40:54;;;;;;;;;19.40;19.40;;;;;23.27;54.48;98919.22;6024089;28;125026;-59
2021/06/27 00:43:57;;;;;;;;;19.80;18.20;;;;;23.08;55.11;98893.72;6040495;28;125094;-59
2021/06/27 00:47:00;;;;;;;;;24.00;21.80;;;;;23.22;55.35;98916.56;6024381;28;126483;-60
2021/06/27 00:50:05;;;;;;;;;23.25;22.50;;;;;23.18;55.14;98924.59;6040874;28;124666;-59
2021/06/27 00:53:10;;;;;;;;;24.40;23.00;;;;;22.97;55.43;98890.34;6039041;28;125950;-59
2021/06/27 00:56:14;;;;;;;;;25.40;23.40;;;;;23.16;55.57;98929.63;6032099;28;124947;-59
2021/06/27 00:59:17;;;;;;;;;26.00;25.00;;;;;23.16;55.83;98923.28;6042447;28;127036;-59
2021/06/27 01:02:21;;;;;;;;;23.40;22.40;;;;;23.13;55.89;98919.19;6042311;28;125029;-60
2021/06/27 01:05:28;;;;;;;;;25.00;23.25;;;;;23.14;55.95;98907.09;6028613;28;125820;-59
2021/06/27 01:08:33;;;;;;;;;26.00;23.50;;;;;23.15;55.93;98922.47;6045626;28;125092;-58
2021/06/27 01:11:36;;;;;;;;;24.00;23.00;;;;;23.15;55.73;98927.97;6043920;28;124397;-60
2021/06/27 01:14:39;;;;;;;;;24.60;22.60;;;;;23.13;55.92;98926.63;6042122;28;126249;-59
2021/06/27 01:17:44;;;;;;;;;23.00;22.00;;;;;23.13;55.82;98930.19;6043796;28;127338;-58
2021/06/27 01:20:48;;;;;;;;;22.50;21.00;;;;;23.12;55.51;98934.06;6043555;28;125835;-58
2021/06/27 01:23:55;;;;;;;;;23.00;22.00;;;;;23.12;55.87;98930.50;6043827;28;124622;-57
2021/06/27 01:26:58;;;;;;;;;25.40;22.00;;;;;23.12;55.98;98933.25;6045528;28;125763;-59
2021/06/27 01:30:03;;;;;;;;;24.00;24.00;;;;;23.07;56.45;98931.41;6044605;28;127145;-58
2021/06/27 01:33:08;;;;;;;;;24.75;23.25;;;;;23.08;56.47;98926.72;6044881;28;124896;-57
2021/06/27 01:36:11;;;;;;;;;28.25;26.00;;;;;23.02;56.74;98933.44;6045692;28;127688;-60
2021/06/27 01:39:15;;;;;;;;;27.80;25.00;;;;;23.01;56.85;98923.56;6044074;28;124910;-60
2021/06/27 01:42:19;;;;;;;;;28.40;24.40;;;;;23.03;56.66;98927.63;6043592;28;126069;-59
2021/06/27 01:45:24;;;;;;;;;26.40;24.00;;;;;23.03;56.42;98930.38;6045041;28;127650;-58
2021/06/27 01:48:27;;;;;;;;;32.40;29.40;;;;;22.81;56.59;98897.25;6044228;28;125842;-60
2021/06/27 01:51:30;;;;;;;;;24.60;23.00;;;;;23.01;56.39;98931.81;6043154;28;125167;-59
2021/06/27 01:54:38;;;;;;;;;27.60;26.00;;;;;23.00;56.54;98927.44;6044062;28;126060;-60
2021/06/27 01:57:42;;;;;;;;;26.00;24.00;;;;;22.97;56.63;98934.31;6044115;28;125367;-60
2021/06/27 02:00:45;;;;;;;;;29.00;26.00;;;;;22.94;56.57;98937.69;6043355;28;126962;-60
2021/06/27 02:03:50;;;;;;;;;25.20;24.20;;;;;22.85;56.73;98923.81;6044503;28;124463;-59
2021/06/27 02:06:53;;;;;;;;;29.20;27.00;;;;;22.89;56.38;98933.09;6043409;28;124885;-60
2021/06/27 02:09:58;;;;;;;;;26.00;24.80;;;;;22.90;56.28;98925.66;6044791;28;125139;-58
2021/06/27 02:13:01;;;;;;;;;28.33;26.00;;;;;22.87;56.46;98938.06;6042884;28;125619;-59
2021/06/27 02:16:05;;;;;;;;;27.00;25.00;;;;;22.85;56.21;98936.75;6043396;28;126183;-57
2021/06/27 02:19:08;;;;;;;;;26.00;24.00;;;;;22.82;56.42;98937.38;6043267;28;126148;-59
2021/06/27 02:22:12;;;;;;;;;24.00;24.00;;;;;22.78;56.40;98948.13;6044156;28;126183;-57
2021/06/27 02:25:17;;;;;;;;;26.00;24.40;;;;;22.78;56.33;98936.31;6044284;28;124861;-56
2021/06/27 02:28:20;;;;;;;;;26.60;23.00;;;;;22.71;56.04;98935.88;6043817;28;126039;-59
2021/06/27 02:31:23;;;;;;;;;24.60;23.60;;;;;22.74;56.36;98938.84;6044407;28;126509;-61
2021/06/27 02:34:27;;;;;;;;;24.40;21.60;;;;;22.73;56.24;98933.63;6044338;28;125717;-58
2021/06/27 02:37:30;;;;;;;;;25.00;21.80;;;;;22.69;56.50;98935.34;6043921;28;123924;-57
2021/06/27 02:40:35;;;;;;;;;23.20;22.20;;;;;22.68;56.20;98944.69;6043813;28;127146;-59
2021/06/27 02:43:40;;;;;;;;;26.00;24.00;;;;;22.64;56.17;98940.91;6042999;28;124749;-57
2021/06/27 02:46:43;;;;;;;;;24.25;23.25;;;;;22.61;56.37;98934.09;6043880;28;124196;-59
2021/06/27 02:49:47;;;;;;;;;25.80;23.00;;;;;22.62;56.17;98932.16;6042633;28;124872;-59
2021/06/27 02:52:50;;;;;;;;;24.80;23.00;;;;;22.59;56.03;98936.31;6042021;28;126447;-59
2021/06/27 02:56:07;;;;;;;;;21.60;19.60;;;;;22.56;56.04;98925.94;6043678;28;125018;-56
2021/06/27 02:59:11;;;;;;;;;23.40;21.80;;;;;22.57;56.00;98911.09;6043299;28;125975;-59
2021/06/27 03:02:14;;;;;;;;;25.00;22.75;;;;;22.62;56.15;98908.25;6043443;28;123968;-58
2021/06/27 03:05:18;;;;;;;;;22.00;21.00;;;;;22.55;56.07;98898.75;6043121;28;125312;-57
2021/06/27 03:08:21;;;;;;;;;23.25;22.25;;;;;22.61;56.14;98903.03;6040525;28;125353;-60
2021/06/27 03:11:25;;;;;;;;;25.00;23.40;;;;;22.63;55.76;98900.78;6040760;28;127072;-59
2021/06/27 03:14:29;;;;;;;;;26.25;26.00;;;;;22.64;55.83;98908.75;6040811;28;124592;-59
2021/06/27 03:17:32;;;;;;;;;25.00;23.00;;;;;22.70;56.01;98912.22;6040238;28;125969;-59
2021/06/27 03:20:35;;;;;;;;;24.00;22.67;;;;;22.74;55.70;98919.59;6037312;28;125928;-59
2021/06/27 03:23:39;;;;;;;;;23.00;21.00;;;;;22.76;55.68;98922.88;6042126;28;124175;-58
2021/06/27 03:26:44;;;;;;;;;24.40;22.00;;;;;22.79;55.42;98924.19;6033475;28;125722;-56
2021/06/27 03:29:47;;;;;;;;;22.20;21.20;;;;;22.80;55.30;98928.59;6006313;28;125592;-59
2021/06/27 03:32:51;;;;;;;;;20.60;20.00;;;;;22.81;54.89;98927.47;6042264;28;126164;-58
2021/06/27 03:35:54;;;;;;;;;20.60;18.60;;;;;22.80;54.95;98928.59;6042016;28;124914;-59
2021/06/27 03:39:04;;;;;;;;;22.00;19.00;;;;;22.79;54.59;98936.00;6039743;28;126721;-61
2021/06/27 03:42:09;;;;;;;;;19.33;18.00;;;;;22.81;54.37;98938.47;6040723;28;124705;-59
2021/06/27 03:45:14;;;;;;;;;18.60;17.40;;;;;22.77;54.18;98937.44;6032422;28;126009;-59
2021/06/27 03:48:17;;;;;;;;;21.00;19.00;;;;;22.77;54.45;98932.75;6042231;28;126202;-59
2021/06/27 03:51:20;;;;;;;;;20.20;19.00;;;;;22.78;54.51;98939.88;6042112;28;126237;-59
2021/06/27 03:54:24;;;;;;;;;21.50;19.50;;;;;22.81;54.53;98928.31;6041828;28;124864;-57
2021/06/27 03:57:28;;;;;;;;;24.00;20.40;;;;;22.87;54.77;98932.56;6042724;28;126012;-58
2021/06/27 04:00:31;;;;;;;;;19.80;19.20;;;;;22.92;54.53;98934.41;6042382;28;125952;-58
2021/06/27 04:03:35;;;;;;;;;18.60;17.00;;;;;22.97;54.14;98934.31;6042114;28;125181;-59
2021/06/27 04:06:39;;;;;;;;;22.00;20.40;;;;;22.99;54.52;98921.09;6043591;28;127689;-58
2021/06/27 04:09:42;;;;;;;;;22.00;21.00;;;;;22.99;54.13;98923.03;6042530;28;125784;-60
2021/06/27 04:12:49;;;;;;;;;20.20;19.60;;;;;22.94;54.28;98929.44;6042266;28;126251;-56
2021/06/27 04:15:53;;;;;;;;;20.60;19.60;;;;;23.07;54.02;98928.66;6042180;28;124212;-58
2021/06/27 04:18:56;;;;;;;;;19.75;19.00;;;;;23.07;53.83;98934.16;6040682;28;126057;-58
2021/06/27 04:21:59;;;;;;;;;21.80;18.80;;;;;23.01;53.99;98938.13;6041596;28;126000;-58
2021/06/27 04:25:04;;;;;;;;;19.50;18.75;;;;;23.04;53.51;98933.94;6040688;28;124881;-58
2021/06/27 04:28:08;;;;;;;;;22.00;20.50;;;;;22.96;54.13;98934.66;6041488;28;126931;-60
2021/06/27 04:31:11;;;;;;;;;21.60;20.60;;;;;22.95;54.32;98928.34;6041231;28;125973;-59
2021/06/27 04:34:15;;;;;;;;;20.60;19.40;;;;;22.92;53.87;98928.13;6041784;28;124815;-59
2021/06/27 04:37:18;;;;;;;;;21.80;20.00;;;;;22.99;53.94;98917.53;6041927;28;127537;-59
2021/06/27 04:40:22;;;;;;;;;22.80;21.80;;;;;23.11;53.86;98921.44;6044336;28;126278;-59
2021/06/27 04:43:26;;;;;;;;;21.75;21.00;;;;;23.09;53.88;98918.19;6043838;28;126457;-58
2021/06/27 04:46:30;;;;;;;;;22.80;20.40;;;;;23.28;53.62;98916.16;6043695;28;126493;-59
2021/06/27 04:49:33;;;;;;;;;21.00;20.80;;;;;23.10;53.86;98883.25;6044049;28;126264;-59
2021/06/27 04:52:37;;;;;;;;;22.00;21.00;;;;;23.42;53.83;98921.69;6043756;28;125185;-59
2021/06/27 04:55:40;;;;;;;;;24.00;21.40;;;;;23.49;53.59;98926.81;6045570;28;125818;-57
2021/06/27 04:58:45;;;;;;;;;23.50;21.00;;;;;23.56;53.39;98917.03;6044383;28;126049;-60
2021/06/27 05:01:48;;;;;;;;;24.00;22.00;;;;;23.54;53.81;98921.22;6043653;28;126119;-58
2021/06/27 05:04:51;;;;;;;;;25.60;23.00;;;;;23.65;53.78;98920.69;6026475;28;126883;-60
2021/06/27 05:07:54;;;;;;;;;21.00;20.00;;;;;23.64;53.61;98904.50;6040280;28;124914;-59
2021/06/27 05:11:00;;;;;;;;;23.00;22.00;;;;;23.92;53.64;98922.63;6044306;28;126279;-58
2021/06/27 05:14:05;;;;;;;;;22.67;22.67;;;;;23.98;nan;98924.16;6045127;28;126517;-58
2021/06/27 05:17:09;;;;;;;;;24.20;22.80;;;;;24.05;53.08;98920.94;6046243;28;126432;-57
2021/06/27 05:20:13;;;;;;;;;23.80;22.00;;;;;24.25;52.83;98912.25;6046604;28;124229;-59
2021/06/27 05:23:17;;;;;;;;;26.00;24.00;;;;;24.22;52.68;98912.09;6045076;28;125755;-60
2021/06/27 05:26:20;;;;;;;;;27.40;25.40;;;;;24.26;52.60;98904.81;6045601;28;126658;-59
2021/06/27 05:29:25;;;;;;;;;30.60;27.60;;;;;24.40;52.08;98906.41;6044834;28;124765;-57
2021/06/27 05:32:28;;;;;;;;;32.00;28.00;;;;;24.46;52.09;98916.19;6028446;28;126045;-59
2021/06/27 05:35:32;;;;;;;;;30.00;27.40;;;;;24.59;51.90;98912.56;6044709;28;127227;-60
2021/06/27 05:38:35;;;;;;;;;28.60;27.60;;;;;24.72;51.65;98910.88;6045243;28;126579;-59
2021/06/27 05:41:41;;;;;;;;;29.75;26.00;;;;;24.82;51.71;98918.09;6045278;28;125801;-57
2021/06/27 05:44:46;;;;;;;;;29.00;28.20;;;;;25.02;51.34;98920.34;6045525;28;125955;-59
2021/06/27 05:47:49;;;;;;;;;32.40;29.00;;;;;25.17;50.96;98919.94;6044632;28;126036;-59
2021/06/27 05:50:52;;;;;;;;;33.40;30.00;;;;;25.11;51.01;98935.00;6043715;28;125919;-59
2021/06/27 05:53:55;;;;;;;;;29.60;28.20;;;;;25.23;51.05;98931.66;6043333;28;126123;-59
2021/06/27 05:56:58;;;;;;;;;28.60;27.00;;;;;25.32;50.40;98935.25;6031867;28;126231;-57
2021/06/27 06:00:04;;;;;;;;;30.00;27.00;;;;;25.39;50.55;98930.13;6045305;28;126245;-57
2021/06/27 06:03:12;;;;;;;;;29.40;27.80;;;;;25.30;50.27;98865.78;6023903;28;124681;-59
2021/06/27 06:06:15;;;;;;;;;28.40;26.00;;;;;25.84;50.09;98920.56;6043449;28;126673;-59
2021/06/27 06:09:18;;;;;;;;;27.00;26.00;;;;;25.93;49.65;98926.13;6025798;28;126944;-60
2021/06/27 06:12:22;;;;;;;;;25.00;24.00;;;;;26.05;49.61;98925.47;6045303;28;126526;-58
2021/06/27 06:15:26;;;;;;;;;23.00;22.00;;;;;26.19;49.07;98928.94;6043424;28;124949;-59
2021/06/27 06:18:31;;;;;;;;;25.40;24.40;;;;;26.32;48.63;98943.75;6043451;28;124556;-59
2021/06/27 06:21:34;;;;;;;;;27.75;23.75;;;;;26.37;47.67;98946.38;6042987;28;124569;-61
2021/06/27 06:24:39;;;;;;;;;22.00;21.00;;;;;26.50;47.61;98937.09;6043370;28;126029;-59
2021/06/27 06:27:43;;;;;;;;;23.60;23.00;;;;;26.73;48.11;98938.59;6040113;28;126673;-59
2021/06/27 06:30:47;;;;;;;;;26.00;22.60;;;;;27.01;47.62;98944.59;6042832;28;126879;-59
2021/06/27 06:33:51;;;;;;;;;22.40;21.40;;;;;27.04;45.71;98941.97;6041499;28;126141;-60
2021/06/27 06:36:54;;;;;;;;;23.40;22.00;;;;;27.11;46.08;98947.84;6041100;28;125247;-59
2021/06/27 06:39:58;;;;;;;;;20.00;18.20;;;;;27.14;45.58;98949.13;6042986;28;124453;-58
2021/06/27 06:43:01;;;;;;;;;23.25;20.25;;;;;27.17;44.99;98951.25;6025462;28;125175;-59
2021/06/27 06:46:06;;;;;;;;;20.00;19.00;;;;;27.23;45.34;98949.91;6042418;28;126692;-60
2021/06/27 06:49:09;;;;;;;;;21.60;20.60;;;;;27.37;45.48;98952.47;6042270;28;124819;-58
2021/06/27 06:52:12;;;;;;;;;25.40;24.00;;;;;27.52;45.29;98951.97;6040919;28;124780;-60
2021/06/27 06:55:16;;;;;;;;;22.00;21.00;;;;;27.57;45.18;98954.53;6039863;28;125530;-59
2021/06/27 06:58:20;;;;;;;;;21.00;18.80;;;;;27.84;45.27;98945.81;6040667;28;127225;-59
2021/06/27 07:01:26;;;;;;;;;22.00;21.00;;;;;27.95;44.54;98951.78;6039843;28;127386;-58
2021/06/27 07:04:29;;;;;;;;;24.40;23.40;;;;;27.99;44.35;98958.28;6040135;28;124919;-60
2021/06/27 07:07:32;;;;;;;;;25.00;22.00;;;;;28.16;44.05;98955.41;6039678;28;126002;-58
2021/06/27 07:10:35;;;;;;;;;19.80;19.20;;;;;28.29;44.57;98962.69;6039437;28;124828;-61
2021/06/27 07:13:39;;;;;;;;;22.50;19.50;;;;;28.25;44.19;98961.72;6039807;28;126171;-59
2021/06/27 07:16:44;;;;;;;;;20.40;20.00;;;;;28.35;44.27;98958.53;6038362;28;124746;-60
2021/06/27 07:19:47;;;;;;;;;20.00;19.00;;;;;28.44;44.05;98959.28;6038787;28;127225;-58
2021/06/27 07:22:51;;;;;;;;;19.60;19.00;;;;;28.58;43.20;98956.28;6035180;28;124678;-58
2021/06/27 07:25:58;;;;;;;;;16.50;15.50;;;;;28.72;41.82;98959.63;6044531;28;127030;-59
2021/06/27 07:29:01;;;;;;;;;19.50;18.00;;;;;28.79;42.11;98961.81;6046007;28;126164;-58
2021/06/27 07:32:07;;;;;;;;;22.40;20.00;;;;;28.92;41.45;98960.75;6043371;28;124293;-59
2021/06/27 07:35:11;;;;;;;;;15.00;14.25;;;;;28.90;40.38;98965.00;6041294;28;126478;-59
2021/06/27 07:38:18;;;;;;;;;17.00;17.00;;;;;28.95;40.96;98957.28;6042007;28;124825;-58
2021/06/27 07:41:24;;;;;;;;;18.80;18.00;;;;;29.14;41.12;98965.09;6041331;28;127003;-58
2021/06/27 07:44:27;;;;;;;;;19.00;18.00;;;;;29.21;40.74;98968.13;6041952;28;127203;-58
2021/06/27 07:47:31;;;;;;;;;17.75;17.00;;;;;29.31;41.33;98964.94;6040819;28;127580;-58
2021/06/27 07:50:35;;;;;;;;;21.00;18.00;;;;;29.42;41.02;98971.66;6040367;28;126923;-60
2021/06/27 07:53:39;;;;;;;;;19.00;18.00;;;;;29.50;40.07;98964.41;6040871;28;125604;-58
2021/06/27 07:56:42;;;;;;;;;21.60;20.20;;;;;29.58;40.56;98975.41;6041286;28;127282;-58
2021/06/27 07:59:45;;;;;;;;;16.75;16.75;;;;;29.65;40.74;98967.34;6039736;28;125812;-60
2021/06/27 08:02:50;;;;;;;;;22.00;20.40;;;;;29.52;40.66;98949.00;6040694;28;126478;-58
2021/06/27 08:05:56;;;;;;;;;21.00;19.00;;;;;29.64;40.45;98971.25;6033237;28;127027;-59
2021/06/27 08:08:59;;;;;;;;;17.50;17.00;;;;;29.65;40.41;98961.78;6042074;28;125502;-59
2021/06/27 08:12:03;;;;;;;;;14.00;13.00;;;;;29.58;38.57;98961.53;6040482;28;126392;-57
2021/06/27 08:15:08;;;;;;;;;13.00;12.60;;;;;29.47;37.88;98968.66;6048467;28;124975;-59
2021/06/27 08:18:13;;;;;;;;;15.00;14.80;;;;;29.36;38.83;98966.69;6043066;28;124877;-57
2021/06/27 08:21:16;;;;;;;;;14.00;13.60;;;;;29.36;38.23;98970.28;6035118;28;124597;-60
2021/06/27 08:24:19;;;;;;;;;16.80;16.00;;;;;29.41;38.98;98966.47;6041929;28;126002;-59
2021/06/27 08:27:22;;;;;;;;;21.80;19.00;;;;;29.60;39.46;98963.97;6049138;28;126579;-59
2021/06/27 08:30:26;;;;;;;;;19.00;17.40;;;;;29.79;39.13;98943.94;6042495;28;125624;-57
2021/06/27 08:33:31;;;;;;;;;16.00;15.00;;;;;29.96;38.43;98964.00;6050445;28;126199;-60
2021/06/27 08:36:34;;;;;;;;;17.00;16.00;;;;;30.12;37.96;98962.16;6049056;28;124878;-59
2021/06/27 08:39:37;;;;;;;;;16.00;15.00;;;;;30.25;37.04;98957.38;6039664;28;126846;-60
2021/06/27 08:42:41;;;;;;;;;16.00;15.00;;;;;30.62;36.83;98955.38;6043018;28;126065;-59
2021/06/27 08:45:50;;;;;;;;;15.00;14.00;;;;;31.06;37.54;98958.25;6046594;28;126701;-58
2021/06/27 08:48:56;;;;;;;;;13.80;13.80;;;;;31.44;35.55;98960.47;6044542;28;125809;-60
2021/06/27 08:51:59;;;;;;;;;13.00;12.00;;;;;31.56;33.86;98955.66;6040868;28;125500;-60
2021/06/27 08:55:03;;;;;;;;;16.75;14.00;;;;;31.72;32.61;98953.66;6046098;28;124846;-58
2021/06/27 08:58:09;;;;;;;;;13.60;13.00;;;;;31.95;33.77;98953.84;6043309;28;127240;-58
2021/06/27 09:01:14;;;;;;;;;13.40;13.00;;;;;32.07;33.26;98942.56;6046396;28;126776;-59
2021/06/27 09:04:20;;;;;;;;;14.00;14.00;;;;;32.28;33.29;98950.66;6042807;28;126431;-57
2021/06/27 09:07:29;;;;;;;;;13.00;12.20;;;;;32.47;33.74;98950.69;6049183;28;124647;-59
2021/06/27 09:10:32;;;;;;;;;13.60;13.40;;;;;32.71;33.05;98948.84;6043310;28;125802;-59
2021/06/27 09:13:40;;;;;;;;;13.60;12.60;;;;;32.74;32.61;98942.53;6023764;28;127084;-60
2021/06/27 09:16:43;;;;;;;;;13.60;13.00;;;;;32.94;32.53;98950.50;6041357;28;126641;-59
2021/06/27 09:20:09;;;;;;;;;13.00;12.25;;;;;33.17;33.09;98942.22;6040468;28;126301;-59
2021/06/27 09:23:13;;;;;;;;;15.00;14.00;;;;;33.44;31.29;98949.50;6052615;28;123802;-60
2021/06/27 09:26:27;;;;;;;;;17.00;17.00;;;;;33.63;30.77;98943.06;6049246;28;124844;-58
2021/06/27 09:29:31;;;;;;;;;13.00;12.80;;;;;33.77;30.80;98953.72;6041460;28;125349;-60
2021/06/27 09:32:34;;;;;;;;;16.60;16.00;;;;;33.69;30.23;98941.59;6045924;28;127862;-59
2021/06/27 09:35:46;;;;;;;;;15.00;14.00;;;;;33.85;29.92;98944.25;6061350;28;124814;-59
2021/06/27 09:38:50;;;;;;;;;14.00;14.00;;;;;33.81;30.20;98941.41;6051385;28;125003;-60
2021/06/27 09:41:57;;;;;;;;;15.00;14.00;;;;;33.71;30.68;98935.63;6043355;28;127372;-58
2021/06/27 09:45:01;;;;;;;;;12.60;12.00;;;;;33.92;30.56;98941.56;6044448;28;125848;-59
2021/06/27 09:48:06;;;;;;;;;14.00;13.00;;;;;33.88;30.79;98943.50;6047266;28;124375;-59
2021/06/27 09:51:15;;;;;;;;;16.00;14.50;;;;;33.87;31.12;98937.09;6046486;28;125557;-60
2021/06/27 09:54:23;;;;;;;;;15.40;15.00;;;;;33.83;30.71;98941.81;6035547;28;125726;-60
2021/06/27 09:57:26;;;;;;;;;12.00;11.00;;;;;33.73;30.53;98936.06;6037584;28;125678;-59
2021/06/27 10:00:33;;;;;;;;;15.00;14.60;;;;;33.76;31.05;98929.72;6052131;28;125977;-59
2021/06/27 10:03:43;;;;;;;;;15.00;15.00;;;;;33.70;31.10;98931.22;6043287;28;124927;-59
2021/06/27 10:06:51;;;;;;;;;16.00;15.00;;;;;33.66;30.69;98933.13;6045331;28;124625;-60
2021/06/27 10:09:55;;;;;;;;;12.20;12.20;;;;;34.03;29.73;98917.38;6059108;28;125476;-59
2021/06/27 10:13:00;;;;;;;;;16.40;14.40;;;;;34.08;30.12;98922.63;6052118;28;125734;-58
2021/06/27 10:16:03;;;;;;;;;17.00;16.00;;;;;33.81;29.73;98916.25;6044206;28;125589;-58
2021/06/27 10:19:07;;;;;;;;;14.33;13.00;;;;;33.76;29.77;98915.75;6040716;28;126135;-59
2021/06/27 10:22:12;;;;;;;;;15.00;15.00;;;;;33.30;29.55;98910.13;6041927;28;124881;-60
2021/06/27 10:25:15;;;;;;;;;12.80;12.80;;;;;32.80;30.26;98915.91;6044117;28;125987;-59
2021/06/27 10:28:20;;;;;;;;;13.60;13.00;;;;;32.55;29.91;98918.97;6047008;28;126771;-59
2021/06/27 10:31:25;;;;;;;;;15.00;14.00;;;;;32.33;31.04;98913.28;6040134;28;125013;-58
2021/06/27 10:34:29;;;;;;;;;13.80;12.80;;;;;32.42;31.65;98911.91;6044487;28;127023;-59
2021/06/27 10:37:35;;;;;;;;;14.00;14.00;;;;;32.75;31.01;98907.81;6048064;28;124978;-59
2021/06/27 10:40:53;;;;;;;;;14.20;13.20;;;;;32.76;30.61;98901.06;6049550;28;126706;-58
2021/06/27 10:44:05;;;;;;;;;13.00;13.00;;;;;32.90;30.74;98904.16;6045150;28;126029;-58
2021/06/27 10:47:09;;;;;;;;;13.00;12.00;;;;;33.01;31.63;98902.38;6046430;28;123730;-59
2021/06/27 10:50:13;;;;;;;;;14.00;14.00;;;;;33.17;30.75;98897.53;6047083;28;125265;-60
2021/06/27 10:53:18;;;;;;;;;15.00;15.00;;;;;33.13;31.78;98893.03;6042403;28;124980;-60
2021/06/27 10:56:56;;;;;;;;;15.00;13.00;;;;;33.05;32.73;98898.47;6045451;28;126656;-59
2021/06/27 11:00:00;;;;;;;;;15.25;15.00;;;;;32.74;32.64;98890.28;6047620;28;125627;-59
2021/06/27 11:03:29;;;;;;;;;12.75;12.00;;;;;32.71;32.82;98901.38;6046160;28;96836;-58
2021/06/27 11:06:39;;;;;;;;;13.00;13.00;;;;;32.55;32.23;98907.00;6042152;28;125001;-60
2021/06/27 11:09:44;;;;;;;;;10.40;10.40;;;;;32.43;32.01;98905.16;6045317;28;126012;-59
2021/06/27 11:13:15;;;;;;;;;12.00;11.00;;;;;32.14;31.68;98905.72;6042671;28;126037;-59
2021/06/27 11:16:22;;;;;;;;;11.00;10.40;;;;;32.14;32.39;98905.72;6016186;28;124799;-58
2021/06/27 11:19:27;;;;;;;;;12.00;11.20;;;;;32.29;31.76;98904.03;6036526;28;124620;-58
2021/06/27 11:22:30;;;;;;;;;12.00;11.00;;;;;32.35;30.88;98905.38;6040633;28;127334;-57
2021/06/27 11:25:37;;;;;;;;;10.40;10.20;;;;;32.48;32.58;98904.06;6050669;28;125392;-58
2021/06/27 11:28:41;;;;;;;;;10.00;10.00;;;;;32.42;31.54;98897.97;6042705;28;124453;-60
2021/06/27 11:31:45;;;;;;;;;13.00;12.40;;;;;32.37;31.89;98895.47;6032985;28;125246;-58
2021/06/27 11:34:51;;;;;;;;;10.00;10.00;;;;;32.56;31.42;98884.31;6046353;28;127074;-57
2021/06/27 11:38:09;;;;;;;;;12.00;12.00;;;;;32.91;31.64;98891.81;6047927;28;124889;-58
2021/06/27 11:41:37;;;;;;;;;10.80;9.40;;;;;32.93;29.94;98887.47;6046879;28;127773;-59
2021/06/27 11:44:40;;;;;;;;;10.00;9.25;;;;;33.02;30.17;98879.66;6058175;28;124751;-60
2021/06/27 11:47:56;;;;;;;;;9.40;9.40;;;;;33.20;29.71;98884.78;6041827;28;125023;-57
2021/06/27 11:51:00;;;;;;;;;10.33;10.00;;;;;33.21;29.22;98872.44;6048273;28;124876;-59
2021/06/27 11:54:04;;;;;;;;;12.00;11.00;;;;;33.22;29.15;98863.69;6032078;28;126606;-59
2021/06/27 11:57:09;;;;;;;;;11.60;10.60;;;;;33.42;30.52;98864.44;6028327;28;123263;-59
2021/06/27 12:00:13;;;;;;;;;13.00;11.40;;;;;33.49;28.57;98861.75;6042747;28;126588;-60
2021/06/27 12:03:19;;;;;;;;;12.00;11.60;;;;;33.18;29.14;98842.47;6046778;28;124731;-58
2021/06/27 12:06:22;;;;;;;;;13.40;11.80;;;;;33.10;29.75;98855.44;6040994;28;125900;-57
2021/06/27 12:09:37;;;;;;;;;12.40;12.40;;;;;33.16;31.43;98850.41;6033360;28;123776;-58
2021/06/27 12:12:44;;;;;;;;;12.00;11.20;;;;;33.41;31.03;98855.25;6033640;28;126533;-58
2021/06/27 12:15:49;;;;;;;;;13.60;13.00;;;;;33.41;29.48;98852.44;6037985;28;124995;-59
2021/06/27 12:18:57;;;;;;;;;12.00;12.00;;;;;33.34;29.37;98837.53;6052173;28;124828;-57
2021/06/27 12:22:01;;;;;;;;;14.00;13.00;;;;;33.03;30.19;98841.38;6048134;28;124328;-60
2021/06/27 12:25:05;;;;;;;;;13.20;12.80;;;;;33.23;29.66;98837.38;6039983;28;125096;-60
2021/06/27 12:28:13;;;;;;;;;13.00;13.00;;;;;33.24;29.22;98829.78;6038364;28;124030;-60
2021/06/27 12:31:19;;;;;;;;;12.00;11.00;;;;;33.40;29.90;98839.66;6044910;28;127052;-58
2021/06/27 12:34:23;;;;;;;;;12.00;12.00;;;;;33.71;28.85;98843.38;6049760;28;124582;-59
2021/06/27 12:37:27;;;;;;;;;13.40;13.00;;;;;34.02;30.51;98845.00;6035934;28;124760;-58
2021/06/27 12:40:32;;;;;;;;;13.80;12.80;;;;;34.21;29.91;98839.31;6040188;28;126253;-60
2021/06/27 12:43:44;;;;;;;;;13.00;12.00;;;;;34.57;29.65;98835.75;6043045;28;126217;-59
2021/06/27 12:46:50;;;;;;;;;13.60;12.00;;;;;34.62;26.18;98812.22;6019058;28;125650;-58
2021/06/27 12:49:53;;;;;;;;;11.80;11.00;;;;;34.90;27.29;98834.13;6037820;28;124800;-59
2021/06/27 12:53:05;;;;;;;;;11.25;11.00;;;;;35.01;26.75;98824.66;6042644;28;127666;-59
2021/06/27 12:56:09;;;;;;;;;10.00;9.00;;;;;35.18;25.57;98828.88;6042391;28;124590;-58
2021/06/27 12:59:13;;;;;;;;;11.00;11.00;;;;;35.36;26.24;98829.00;6047334;28;125860;-58
2021/06/27 13:02:19;;;;;;;;;10.75;10.00;;;;;35.34;25.50;98828.56;6046681;28;124669;-58
2021/06/27 13:05:22;;;;;;;;;13.20;12.20;;;;;34.86;26.94;98836.09;6045490;28;125989;-58
2021/06/27 13:08:26;;;;;;;;;12.20;11.20;;;;;34.40;28.18;98827.97;6049848;28;125969;-57
2021/06/27 13:11:29;;;;;;;;;14.00;13.00;;;;;34.38;28.32;98821.94;6035877;28;127049;-57
2021/06/27 13:14:35;;;;;;;;;13.00;13.00;;;;;34.39;28.34;98817.16;6048651;28;126189;-57
2021/06/27 13:17:43;;;;;;;;;13.00;13.00;;;;;34.22;28.10;98813.75;6049515;28;123869;-57
2021/06/27 13:20:49;;;;;;;;;13.00;12.00;;;;;34.10;26.46;98821.56;6049844;28;126641;-59
2021/06/27 13:24:04;;;;;;;;;12.00;11.00;;;;;33.91;27.10;98816.91;6051386;28;125269;-59
2021/06/27 13:27:11;;;;;;;;;12.40;11.00;;;;;33.97;28.00;98803.38;6053551;28;127119;-59
2021/06/27 13:30:16;;;;;;;;;11.00;10.00;;;;;33.99;26.67;98804.63;6046854;28;126000;-58
2021/06/27 13:33:21;;;;;;;;;12.75;11.00;;;;;34.10;27.05;98799.16;6049827;28;126618;-59
2021/06/27 13:36:28;;;;;;;;;14.00;13.00;;;;;34.05;28.33;98796.69;6046150;28;126709;-59
2021/06/27 13:39:31;;;;;;;;;11.00;10.67;;;;;33.89;27.07;98796.88;6027366;28;126130;-58
2021/06/27 13:42:34;;;;;;;;;11.60;10.60;;;;;34.00;28.54;98794.22;6046040;28;124880;-59
2021/06/27 13:45:39;;;;;;;;;12.00;11.00;;;;;34.11;27.60;98795.97;6059059;28;125177;-58
2021/06/27 13:48:43;;;;;;;;;11.20;10.80;;;;;34.29;28.81;98796.25;6049755;28;126224;-59
2021/06/27 13:51:46;;;;;;;;;11.50;11.00;;;;;34.44;27.50;98803.63;6045072;28;125014;-58
2021/06/27 13:54:52;;;;;;;;;12.00;12.00;;;;;34.21;26.94;98794.56;6049237;28;126187;-58
2021/06/27 13:57:57;;;;;;;;;11.00;11.00;;;;;33.91;27.93;98775.75;6051205;28;125856;-59
2021/06/27 14:01:01;;;;;;;;;11.00;10.40;;;;;33.94;27.13;98802.97;6047510;28;125512;-58